sensor_id;sensor_type;location;lat;lon;timestamp;P1;durP1;ratioP1;P2;durP2;ratioP2
53775;SDS011;44276;49.534;6.378;2023-09-12T00:00:53;17.10;;;10.25;;
53775;SDS011;44276;49.534;6.378;2023-09-12T00:03:23;13.35;;;8.90;;
53775;SDS011;44276;49.534;6.378;2023-09-12T00:05:51;19.08;;;11.80;;
53775;SDS011;44276;49.534;6.378;2023-09-12T00:08:20;15.27;;;9.57;;
53775;SDS011;44276;49.534;6.378;2023-09-12T00:10:57;17.70;;;10.27;;
53775;SDS011;44276;49.534;6.378;2023-09-12T00:13:28;18.70;;;10.15;;
53775;SDS011;44276;49.534;6.378;2023-09-12T00:15:57;16.48;;;8.98;;
53775;SDS011;44276;49.534;6.378;2023-09-12T00:18:27;18.33;;;9.25;;
53775;SDS011;44276;49.534;6.378;2023-09-12T00:20:56;17.30;;;9.70;;
53775;SDS011;44276;49.534;6.378;2023-09-12T00:23:27;17.27;;;9.85;;
53775;SDS011;44276;49.534;6.378;2023-09-12T00:25:56;11.88;;;9.60;;
53775;SDS011;44276;49.534;6.378;2023-09-12T00:28:24;18.08;;;9.25;;
53775;SDS011;44276;49.534;6.378;2023-09-12T00:30:52;14.95;;;9.45;;
53775;SDS011;44276;49.534;6.378;2023-09-12T00:33:21;15.60;;;10.82;;
53775;SDS011;44276;49.534;6.378;2023-09-12T00:35:51;16.83;;;9.23;;
53775;SDS011;44276;49.534;6.378;2023-09-12T00:38:19;13.00;;;9.07;;
53775;SDS011;44276;49.534;6.378;2023-09-12T00:40:47;22.27;;;10.10;;
53775;SDS011;44276;49.534;6.378;2023-09-12T00:43:16;27.85;;;9.75;;
53775;SDS011;44276;49.534;6.378;2023-09-12T00:45:44;27.48;;;10.35;;
53775;SDS011;44276;49.534;6.378;2023-09-12T00:48:12;17.40;;;9.63;;
53775;SDS011;44276;49.534;6.378;2023-09-12T00:50:44;13.82;;;10.30;;
53775;SDS011;44276;49.534;6.378;2023-09-12T00:53:17;16.92;;;9.07;;
53775;SDS011;44276;49.534;6.378;2023-09-12T00:55:48;13.30;;;8.65;;
53775;SDS011;44276;49.534;6.378;2023-09-12T00:58:23;16.13;;;9.75;;
53775;SDS011;44276;49.534;6.378;2023-09-12T01:00:52;19.98;;;9.55;;
53775;SDS011;44276;49.534;6.378;2023-09-12T01:03:21;19.45;;;10.75;;
53775;SDS011;44276;49.534;6.378;2023-09-12T01:05:49;19.77;;;10.80;;
53775;SDS011;44276;49.534;6.378;2023-09-12T01:08:20;18.35;;;12.05;;
53775;SDS011;44276;49.534;6.378;2023-09-12T01:10:49;19.42;;;13.27;;
53775;SDS011;44276;49.534;6.378;2023-09-12T01:13:20;22.88;;;12.70;;
53775;SDS011;44276;49.534;6.378;2023-09-12T01:15:48;18.25;;;12.98;;
53775;SDS011;44276;49.534;6.378;2023-09-12T01:18:17;27.83;;;15.23;;
53775;SDS011;44276;49.534;6.378;2023-09-12T01:20:49;19.05;;;13.02;;
53775;SDS011;44276;49.534;6.378;2023-09-12T01:23:50;19.95;;;12.35;;
53775;SDS011;44276;49.534;6.378;2023-09-12T01:26:40;20.65;;;13.77;;
53775;SDS011;44276;49.534;6.378;2023-09-12T01:29:23;24.90;;;12.65;;
53775;SDS011;44276;49.534;6.378;2023-09-12T01:31:53;14.27;;;10.68;;
53775;SDS011;44276;49.534;6.378;2023-09-12T01:34:23;22.00;;;12.18;;
53775;SDS011;44276;49.534;6.378;2023-09-12T01:36:51;23.15;;;13.98;;
53775;SDS011;44276;49.534;6.378;2023-09-12T01:39:19;23.77;;;14.45;;
53775;SDS011;44276;49.534;6.378;2023-09-12T01:41:47;22.65;;;13.60;;
53775;SDS011;44276;49.534;6.378;2023-09-12T01:44:19;29.80;;;17.02;;
53775;SDS011;44276;49.534;6.378;2023-09-12T01:46:52;33.13;;;16.20;;
53775;SDS011;44276;49.534;6.378;2023-09-12T01:49:24;35.25;;;17.27;;
53775;SDS011;44276;49.534;6.378;2023-09-12T01:51:55;24.70;;;14.93;;
53775;SDS011;44276;49.534;6.378;2023-09-12T01:54:25;30.95;;;13.40;;
53775;SDS011;44276;49.534;6.378;2023-09-12T01:56:54;22.92;;;12.98;;
53775;SDS011;44276;49.534;6.378;2023-09-12T01:59:27;23.00;;;12.30;;
53775;SDS011;44276;49.534;6.378;2023-09-12T02:01:56;17.10;;;11.75;;
53775;SDS011;44276;49.534;6.378;2023-09-12T02:04:24;17.77;;;11.50;;
53775;SDS011;44276;49.534;6.378;2023-09-12T02:06:52;14.73;;;10.63;;
53775;SDS011;44276;49.534;6.378;2023-09-12T02:09:20;16.15;;;10.63;;
53775;SDS011;44276;49.534;6.378;2023-09-12T02:11:48;19.77;;;12.07;;
53775;SDS011;44276;49.534;6.378;2023-09-12T02:14:18;18.08;;;11.30;;
53775;SDS011;44276;49.534;6.378;2023-09-12T02:16:48;23.40;;;11.85;;
53775;SDS011;44276;49.534;6.378;2023-09-12T02:19:16;22.60;;;12.35;;
53775;SDS011;44276;49.534;6.378;2023-09-12T02:21:44;19.20;;;12.57;;
53775;SDS011;44276;49.534;6.378;2023-09-12T02:24:12;16.25;;;11.25;;
53775;SDS011;44276;49.534;6.378;2023-09-12T02:26:42;21.40;;;11.50;;
53775;SDS011;44276;49.534;6.378;2023-09-12T02:29:10;20.88;;;12.88;;
53775;SDS011;44276;49.534;6.378;2023-09-12T02:31:38;19.42;;;12.57;;
53775;SDS011;44276;49.534;6.378;2023-09-12T02:34:08;28.42;;;13.43;;
53775;SDS011;44276;49.534;6.378;2023-09-12T02:36:36;25.73;;;12.90;;
53775;SDS011;44276;49.534;6.378;2023-09-12T02:39:05;22.17;;;12.95;;
53775;SDS011;44276;49.534;6.378;2023-09-12T02:41:33;24.50;;;13.18;;
53775;SDS011;44276;49.534;6.378;2023-09-12T02:44:01;18.70;;;12.70;;
53775;SDS011;44276;49.534;6.378;2023-09-12T02:46:29;19.55;;;12.10;;
53775;SDS011;44276;49.534;6.378;2023-09-12T02:48:57;22.92;;;14.10;;
53775;SDS011;44276;49.534;6.378;2023-09-12T02:51:27;19.13;;;13.05;;
53775;SDS011;44276;49.534;6.378;2023-09-12T02:53:56;20.33;;;11.75;;
53775;SDS011;44276;49.534;6.378;2023-09-12T02:56:24;19.67;;;12.43;;
53775;SDS011;44276;49.534;6.378;2023-09-12T02:58:52;29.85;;;12.43;;
53775;SDS011;44276;49.534;6.378;2023-09-12T03:01:21;20.80;;;13.60;;
53775;SDS011;44276;49.534;6.378;2023-09-12T03:03:51;22.33;;;13.88;;
53775;SDS011;44276;49.534;6.378;2023-09-12T03:06:19;29.48;;;15.10;;
53775;SDS011;44276;49.534;6.378;2023-09-12T03:08:49;17.30;;;11.85;;
53775;SDS011;44276;49.534;6.378;2023-09-12T03:11:18;20.65;;;13.40;;
53775;SDS011;44276;49.534;6.378;2023-09-12T03:13:46;23.30;;;14.55;;
53775;SDS011;44276;49.534;6.378;2023-09-12T03:16:14;20.35;;;13.27;;
53775;SDS011;44276;49.534;6.378;2023-09-12T03:18:43;33.40;;;15.48;;
53775;SDS011;44276;49.534;6.378;2023-09-12T03:21:12;24.63;;;14.60;;
53775;SDS011;44276;49.534;6.378;2023-09-12T03:23:40;24.08;;;13.85;;
53775;SDS011;44276;49.534;6.378;2023-09-12T03:26:09;23.42;;;14.85;;
53775;SDS011;44276;49.534;6.378;2023-09-12T03:28:38;26.08;;;15.15;;
53775;SDS011;44276;49.534;6.378;2023-09-12T03:31:09;21.30;;;15.70;;
53775;SDS011;44276;49.534;6.378;2023-09-12T03:33:40;27.10;;;14.75;;
53775;SDS011;44276;49.534;6.378;2023-09-12T03:36:14;29.00;;;15.98;;
53775;SDS011;44276;49.534;6.378;2023-09-12T03:38:43;27.83;;;14.90;;
53775;SDS011;44276;49.534;6.378;2023-09-12T03:41:12;27.27;;;15.02;;
53775;SDS011;44276;49.534;6.378;2023-09-12T03:43:40;26.88;;;15.65;;
53775;SDS011;44276;49.534;6.378;2023-09-12T03:46:08;30.55;;;17.65;;
53775;SDS011;44276;49.534;6.378;2023-09-12T03:48:37;24.55;;;14.75;;
53775;SDS011;44276;49.534;6.378;2023-09-12T03:51:05;27.45;;;15.80;;
53775;SDS011;44276;49.534;6.378;2023-09-12T03:53:33;30.30;;;16.88;;
53775;SDS011;44276;49.534;6.378;2023-09-12T03:56:01;27.88;;;18.15;;
53775;SDS011;44276;49.534;6.378;2023-09-12T03:58:30;32.92;;;18.52;;
53775;SDS011;44276;49.534;6.378;2023-09-12T04:00:59;28.73;;;17.80;;
53775;SDS011;44276;49.534;6.378;2023-09-12T04:03:28;37.70;;;17.63;;
53775;SDS011;44276;49.534;6.378;2023-09-12T04:05:56;26.85;;;17.17;;
53775;SDS011;44276;49.534;6.378;2023-09-12T04:08:24;31.13;;;17.92;;
53775;SDS011;44276;49.534;6.378;2023-09-12T04:10:52;36.10;;;17.85;;
53775;SDS011;44276;49.534;6.378;2023-09-12T04:13:21;28.20;;;16.67;;
53775;SDS011;44276;49.534;6.378;2023-09-12T04:15:50;24.90;;;15.45;;
53775;SDS011;44276;49.534;6.378;2023-09-12T04:18:18;30.75;;;17.27;;
53775;SDS011;44276;49.534;6.378;2023-09-12T04:20:47;30.83;;;18.15;;
53775;SDS011;44276;49.534;6.378;2023-09-12T04:23:15;31.63;;;18.10;;
53775;SDS011;44276;49.534;6.378;2023-09-12T04:25:45;37.38;;;22.75;;
53775;SDS011;44276;49.534;6.378;2023-09-12T04:28:14;32.25;;;18.98;;
53775;SDS011;44276;49.534;6.378;2023-09-12T04:30:42;30.40;;;19.92;;
53775;SDS011;44276;49.534;6.378;2023-09-12T04:33:14;36.20;;;19.42;;
53775;SDS011;44276;49.534;6.378;2023-09-12T04:35:42;36.95;;;18.98;;
53775;SDS011;44276;49.534;6.378;2023-09-12T04:38:10;33.08;;;18.55;;
53775;SDS011;44276;49.534;6.378;2023-09-12T04:40:38;32.60;;;17.67;;
53775;SDS011;44276;49.534;6.378;2023-09-12T04:43:06;31.00;;;18.52;;
53775;SDS011;44276;49.534;6.378;2023-09-12T04:45:35;31.40;;;18.23;;
53775;SDS011;44276;49.534;6.378;2023-09-12T04:48:03;33.08;;;18.25;;
53775;SDS011;44276;49.534;6.378;2023-09-12T04:50:33;34.20;;;18.83;;
53775;SDS011;44276;49.534;6.378;2023-09-12T04:53:08;32.47;;;19.37;;
53775;SDS011;44276;49.534;6.378;2023-09-12T04:55:38;32.75;;;19.33;;
53775;SDS011;44276;49.534;6.378;2023-09-12T04:58:08;38.58;;;21.40;;
53775;SDS011;44276;49.534;6.378;2023-09-12T05:01:06;41.25;;;20.55;;
53775;SDS011;44276;49.534;6.378;2023-09-12T05:04:14;35.05;;;20.45;;
53775;SDS011;44276;49.534;6.378;2023-09-12T05:07:26;35.00;;;19.13;;
53775;SDS011;44276;49.534;6.378;2023-09-12T05:17:40;39.25;;;23.60;;
53775;SDS011;44276;49.534;6.378;2023-09-12T05:20:52;31.98;;;20.55;;
53775;SDS011;44276;49.534;6.378;2023-09-12T05:23:52;36.55;;;20.17;;
53775;SDS011;44276;49.534;6.378;2023-09-12T05:30:40;36.35;;;19.95;;
53775;SDS011;44276;49.534;6.378;2023-09-12T05:33:45;34.33;;;21.50;;
53775;SDS011;44276;49.534;6.378;2023-09-12T05:36:26;37.78;;;23.20;;
53775;SDS011;44276;49.534;6.378;2023-09-12T05:39:06;35.15;;;21.00;;
53775;SDS011;44276;49.534;6.378;2023-09-12T05:41:41;33.38;;;19.42;;
53775;SDS011;44276;49.534;6.378;2023-09-12T05:44:10;29.50;;;18.90;;
53775;SDS011;44276;49.534;6.378;2023-09-12T05:46:39;29.48;;;18.75;;
53775;SDS011;44276;49.534;6.378;2023-09-12T05:49:09;34.47;;;19.75;;
53775;SDS011;44276;49.534;6.378;2023-09-12T05:51:38;30.00;;;18.17;;
53775;SDS011;44276;49.534;6.378;2023-09-12T05:54:09;22.13;;;15.30;;
53775;SDS011;44276;49.534;6.378;2023-09-12T05:56:40;19.45;;;12.80;;
53775;SDS011;44276;49.534;6.378;2023-09-12T05:59:08;18.85;;;11.95;;
53775;SDS011;44276;49.534;6.378;2023-09-12T06:01:37;14.55;;;10.57;;
53775;SDS011;44276;49.534;6.378;2023-09-12T06:04:05;16.20;;;9.88;;
53775;SDS011;44276;49.534;6.378;2023-09-12T06:06:34;14.23;;;9.15;;
53775;SDS011;44276;49.534;6.378;2023-09-12T06:09:03;11.85;;;7.70;;
53775;SDS011;44276;49.534;6.378;2023-09-12T06:11:45;15.52;;;8.07;;
53775;SDS011;44276;49.534;6.378;2023-09-12T06:14:14;21.95;;;8.18;;
53775;SDS011;44276;49.534;6.378;2023-09-12T06:16:42;16.00;;;7.38;;
53775;SDS011;44276;49.534;6.378;2023-09-12T06:19:11;18.25;;;8.23;;
53775;SDS011;44276;49.534;6.378;2023-09-12T06:21:41;19.60;;;8.35;;
53775;SDS011;44276;49.534;6.378;2023-09-12T06:24:11;18.08;;;7.75;;
53775;SDS011;44276;49.534;6.378;2023-09-12T06:26:44;14.15;;;8.93;;
53775;SDS011;44276;49.534;6.378;2023-09-12T06:29:13;14.85;;;7.03;;
53775;SDS011;44276;49.534;6.378;2023-09-12T06:31:41;11.82;;;7.28;;
53775;SDS011;44276;49.534;6.378;2023-09-12T06:34:10;14.43;;;6.63;;
53775;SDS011;44276;49.534;6.378;2023-09-12T06:36:38;13.35;;;6.57;;
53775;SDS011;44276;49.534;6.378;2023-09-12T06:39:08;13.32;;;6.55;;
53775;SDS011;44276;49.534;6.378;2023-09-12T06:41:36;13.00;;;7.32;;
53775;SDS011;44276;49.534;6.378;2023-09-12T06:44:05;12.07;;;6.40;;
53775;SDS011;44276;49.534;6.378;2023-09-12T06:46:34;11.02;;;6.18;;
53775;SDS011;44276;49.534;6.378;2023-09-12T06:49:04;11.65;;;6.65;;
53775;SDS011;44276;49.534;6.378;2023-09-12T06:51:32;12.98;;;6.30;;
53775;SDS011;44276;49.534;6.378;2023-09-12T06:54:04;17.15;;;5.97;;
53775;SDS011;44276;49.534;6.378;2023-09-12T06:56:32;11.35;;;6.00;;
53775;SDS011;44276;49.534;6.378;2023-09-12T06:59:05;12.07;;;6.53;;
53775;SDS011;44276;49.534;6.378;2023-09-12T07:01:34;9.30;;;6.03;;
53775;SDS011;44276;49.534;6.378;2023-09-12T07:04:03;13.68;;;6.35;;
53775;SDS011;44276;49.534;6.378;2023-09-12T07:06:32;11.23;;;6.82;;
53775;SDS011;44276;49.534;6.378;2023-09-12T07:09:00;16.23;;;6.63;;
53775;SDS011;44276;49.534;6.378;2023-09-12T07:11:29;11.07;;;6.50;;
53775;SDS011;44276;49.534;6.378;2023-09-12T07:13:58;13.05;;;5.72;;
53775;SDS011;44276;49.534;6.378;2023-09-12T07:16:27;12.57;;;6.25;;
53775;SDS011;44276;49.534;6.378;2023-09-12T07:18:55;10.95;;;6.28;;
53775;SDS011;44276;49.534;6.378;2023-09-12T07:21:24;9.98;;;6.57;;
53775;SDS011;44276;49.534;6.378;2023-09-12T07:23:52;12.05;;;5.82;;
53775;SDS011;44276;49.534;6.378;2023-09-12T07:26:20;9.45;;;6.43;;
53775;SDS011;44276;49.534;6.378;2023-09-12T07:28:52;13.27;;;6.57;;
53775;SDS011;44276;49.534;6.378;2023-09-12T07:31:20;9.95;;;6.88;;
53775;SDS011;44276;49.534;6.378;2023-09-12T07:33:50;13.38;;;7.25;;
53775;SDS011;44276;49.534;6.378;2023-09-12T07:36:18;7.65;;;6.10;;
53775;SDS011;44276;49.534;6.378;2023-09-12T07:38:46;12.30;;;5.88;;
53775;SDS011;44276;49.534;6.378;2023-09-12T07:41:16;11.32;;;6.43;;
53775;SDS011;44276;49.534;6.378;2023-09-12T07:43:45;12.00;;;6.50;;
53775;SDS011;44276;49.534;6.378;2023-09-12T07:46:13;13.88;;;6.35;;
53775;SDS011;44276;49.534;6.378;2023-09-12T07:48:42;6.85;;;6.00;;
53775;SDS011;44276;49.534;6.378;2023-09-12T07:51:13;12.32;;;6.55;;
53775;SDS011;44276;49.534;6.378;2023-09-12T07:53:44;11.50;;;6.88;;
53775;SDS011;44276;49.534;6.378;2023-09-12T07:56:12;13.32;;;7.65;;
53775;SDS011;44276;49.534;6.378;2023-09-12T07:58:40;12.13;;;7.03;;
53775;SDS011;44276;49.534;6.378;2023-09-12T08:01:09;13.52;;;6.38;;
53775;SDS011;44276;49.534;6.378;2023-09-12T08:03:38;12.80;;;6.15;;
53775;SDS011;44276;49.534;6.378;2023-09-12T08:06:08;10.05;;;5.90;;
53775;SDS011;44276;49.534;6.378;2023-09-12T08:08:38;7.40;;;5.38;;
53775;SDS011;44276;49.534;6.378;2023-09-12T08:11:08;9.68;;;5.63;;
53775;SDS011;44276;49.534;6.378;2023-09-12T08:13:36;9.32;;;5.70;;
53775;SDS011;44276;49.534;6.378;2023-09-12T08:16:05;11.00;;;5.78;;
53775;SDS011;44276;49.534;6.378;2023-09-12T08:18:33;9.90;;;5.90;;
53775;SDS011;44276;49.534;6.378;2023-09-12T08:21:01;17.45;;;7.03;;
53775;SDS011;44276;49.534;6.378;2023-09-12T08:23:30;7.93;;;5.38;;
53775;SDS011;44276;49.534;6.378;2023-09-12T08:25:59;13.10;;;5.93;;
53775;SDS011;44276;49.534;6.378;2023-09-12T08:28:27;8.10;;;5.07;;
53775;SDS011;44276;49.534;6.378;2023-09-12T08:30:56;11.43;;;5.93;;
53775;SDS011;44276;49.534;6.378;2023-09-12T08:33:24;9.73;;;6.00;;
53775;SDS011;44276;49.534;6.378;2023-09-12T08:35:52;9.18;;;6.80;;
53775;SDS011;44276;49.534;6.378;2023-09-12T08:38:20;12.10;;;6.78;;
53775;SDS011;44276;49.534;6.378;2023-09-12T08:40:48;9.75;;;6.55;;
53775;SDS011;44276;49.534;6.378;2023-09-12T08:43:19;8.68;;;6.22;;
53775;SDS011;44276;49.534;6.378;2023-09-12T08:45:48;10.32;;;6.05;;
53775;SDS011;44276;49.534;6.378;2023-09-12T08:48:17;11.73;;;6.85;;
53775;SDS011;44276;49.534;6.378;2023-09-12T08:50:50;9.75;;;6.95;;
53775;SDS011;44276;49.534;6.378;2023-09-12T08:53:21;11.27;;;6.60;;
53775;SDS011;44276;49.534;6.378;2023-09-12T08:55:49;10.15;;;5.75;;
53775;SDS011;44276;49.534;6.378;2023-09-12T08:58:20;9.00;;;6.22;;
53775;SDS011;44276;49.534;6.378;2023-09-12T09:00:50;13.40;;;7.03;;
53775;SDS011;44276;49.534;6.378;2023-09-12T09:03:20;10.82;;;6.35;;
53775;SDS011;44276;49.534;6.378;2023-09-12T09:05:50;12.18;;;6.85;;
53775;SDS011;44276;49.534;6.378;2023-09-12T09:08:20;14.05;;;6.53;;
53775;SDS011;44276;49.534;6.378;2023-09-12T09:10:54;11.43;;;6.07;;
53775;SDS011;44276;49.534;6.378;2023-09-12T09:13:25;9.50;;;6.43;;
53775;SDS011;44276;49.534;6.378;2023-09-12T09:16:09;11.32;;;6.22;;
53775;SDS011;44276;49.534;6.378;2023-09-12T09:18:51;12.52;;;6.28;;
53775;SDS011;44276;49.534;6.378;2023-09-12T09:21:23;13.50;;;6.13;;
53775;SDS011;44276;49.534;6.378;2023-09-12T09:23:53;11.63;;;7.45;;
53775;SDS011;44276;49.534;6.378;2023-09-12T09:26:22;22.50;;;7.47;;
53775;SDS011;44276;49.534;6.378;2023-09-12T09:29:03;9.55;;;6.50;;
53775;SDS011;44276;49.534;6.378;2023-09-12T09:31:35;11.05;;;6.55;;
53775;SDS011;44276;49.534;6.378;2023-09-12T09:34:11;11.20;;;7.10;;
53775;SDS011;44276;49.534;6.378;2023-09-12T09:36:43;10.80;;;7.75;;
53775;SDS011;44276;49.534;6.378;2023-09-12T09:39:14;20.08;;;6.93;;
53775;SDS011;44276;49.534;6.378;2023-09-12T09:41:46;13.82;;;7.45;;
53775;SDS011;44276;49.534;6.378;2023-09-12T09:44:17;9.07;;;7.03;;
53775;SDS011;44276;49.534;6.378;2023-09-12T09:46:50;16.67;;;7.80;;
53775;SDS011;44276;49.534;6.378;2023-09-12T09:49:21;10.70;;;7.40;;
53775;SDS011;44276;49.534;6.378;2023-09-12T09:51:50;11.48;;;6.90;;
53775;SDS011;44276;49.534;6.378;2023-09-12T09:54:23;14.05;;;7.35;;
53775;SDS011;44276;49.534;6.378;2023-09-12T09:56:54;9.63;;;7.00;;
53775;SDS011;44276;49.534;6.378;2023-09-12T09:59:25;11.98;;;6.88;;
53775;SDS011;44276;49.534;6.378;2023-09-12T10:01:55;14.13;;;7.63;;
53775;SDS011;44276;49.534;6.378;2023-09-12T10:04:26;12.35;;;7.35;;
53775;SDS011;44276;49.534;6.378;2023-09-12T10:06:56;12.00;;;7.72;;
53775;SDS011;44276;49.534;6.378;2023-09-12T10:09:26;12.48;;;5.95;;
53775;SDS011;44276;49.534;6.378;2023-09-12T10:11:55;9.30;;;6.65;;
53775;SDS011;44276;49.534;6.378;2023-09-12T10:14:27;14.90;;;7.20;;
53775;SDS011;44276;49.534;6.378;2023-09-12T10:17:00;12.40;;;6.80;;
53775;SDS011;44276;49.534;6.378;2023-09-12T10:19:35;8.52;;;5.47;;
53775;SDS011;44276;49.534;6.378;2023-09-12T10:24:45;10.50;;;6.50;;
53775;SDS011;44276;49.534;6.378;2023-09-12T10:27:18;9.85;;;6.30;;
53775;SDS011;44276;49.534;6.378;2023-09-12T10:29:48;10.32;;;5.68;;
53775;SDS011;44276;49.534;6.378;2023-09-12T10:32:19;7.55;;;5.05;;
53775;SDS011;44276;49.534;6.378;2023-09-12T10:34:49;9.82;;;5.78;;
53775;SDS011;44276;49.534;6.378;2023-09-12T10:37:20;6.38;;;4.60;;
53775;SDS011;44276;49.534;6.378;2023-09-12T10:39:51;9.75;;;5.22;;
53775;SDS011;44276;49.534;6.378;2023-09-12T10:42:21;10.18;;;5.53;;
53775;SDS011;44276;49.534;6.378;2023-09-12T10:44:54;11.02;;;5.60;;
53775;SDS011;44276;49.534;6.378;2023-09-12T10:47:26;9.43;;;5.47;;
53775;SDS011;44276;49.534;6.378;2023-09-12T10:49:55;9.45;;;5.97;;
53775;SDS011;44276;49.534;6.378;2023-09-12T10:52:25;7.93;;;5.43;;
53775;SDS011;44276;49.534;6.378;2023-09-12T10:54:54;9.27;;;5.47;;
53775;SDS011;44276;49.534;6.378;2023-09-12T10:57:23;7.13;;;5.35;;
53775;SDS011;44276;49.534;6.378;2023-09-12T11:00:11;8.32;;;5.75;;
53775;SDS011;44276;49.534;6.378;2023-09-12T11:02:41;8.63;;;5.72;;
53775;SDS011;44276;49.534;6.378;2023-09-12T11:08:19;9.73;;;6.15;;
53775;SDS011;44276;49.534;6.378;2023-09-12T11:13:51;10.70;;;5.63;;
53775;SDS011;44276;49.534;6.378;2023-09-12T11:16:32;9.95;;;5.10;;
53775;SDS011;44276;49.534;6.378;2023-09-12T11:19:14;8.73;;;5.47;;
53775;SDS011;44276;49.534;6.378;2023-09-12T11:21:45;10.75;;;5.93;;
53775;SDS011;44276;49.534;6.378;2023-09-12T11:24:15;6.80;;;5.00;;
53775;SDS011;44276;49.534;6.378;2023-09-12T11:26:54;13.82;;;5.22;;
53775;SDS011;44276;49.534;6.378;2023-09-12T11:29:28;8.32;;;4.95;;
53775;SDS011;44276;49.534;6.378;2023-09-12T11:32:04;13.73;;;5.63;;
53775;SDS011;44276;49.534;6.378;2023-09-12T11:34:36;9.48;;;4.70;;
53775;SDS011;44276;49.534;6.378;2023-09-12T11:37:05;11.75;;;5.38;;
53775;SDS011;44276;49.534;6.378;2023-09-12T11:39:35;9.77;;;5.55;;
53775;SDS011;44276;49.534;6.378;2023-09-12T11:42:07;12.70;;;6.20;;
53775;SDS011;44276;49.534;6.378;2023-09-12T11:44:40;10.85;;;5.60;;
53775;SDS011;44276;49.534;6.378;2023-09-12T11:47:12;9.77;;;6.00;;
53775;SDS011;44276;49.534;6.378;2023-09-12T11:49:40;9.07;;;5.30;;
53775;SDS011;44276;49.534;6.378;2023-09-12T11:52:10;8.70;;;4.65;;
53775;SDS011;44276;49.534;6.378;2023-09-12T11:54:39;5.40;;;4.50;;
53775;SDS011;44276;49.534;6.378;2023-09-12T11:57:09;11.35;;;5.32;;
53775;SDS011;44276;49.534;6.378;2023-09-12T11:59:40;7.22;;;4.40;;
53775;SDS011;44276;49.534;6.378;2023-09-12T12:02:12;6.57;;;4.30;;
53775;SDS011;44276;49.534;6.378;2023-09-12T12:04:42;6.55;;;4.65;;
53775;SDS011;44276;49.534;6.378;2023-09-12T12:07:10;12.18;;;5.68;;
53775;SDS011;44276;49.534;6.378;2023-09-12T12:09:40;10.82;;;5.88;;
53775;SDS011;44276;49.534;6.378;2023-09-12T12:12:11;15.02;;;5.50;;
53775;SDS011;44276;49.534;6.378;2023-09-12T12:14:41;9.45;;;5.15;;
53775;SDS011;44276;49.534;6.378;2023-09-12T12:17:12;6.63;;;5.20;;
53775;SDS011;44276;49.534;6.378;2023-09-12T12:19:44;11.18;;;5.55;;
53775;SDS011;44276;49.534;6.378;2023-09-12T12:22:13;10.35;;;4.72;;
53775;SDS011;44276;49.534;6.378;2023-09-12T12:24:43;8.82;;;5.28;;
53775;SDS011;44276;49.534;6.378;2023-09-12T12:27:14;6.32;;;4.70;;
53775;SDS011;44276;49.534;6.378;2023-09-12T12:29:43;7.20;;;4.93;;
53775;SDS011;44276;49.534;6.378;2023-09-12T12:32:14;8.23;;;5.43;;
53775;SDS011;44276;49.534;6.378;2023-09-12T12:34:47;12.65;;;4.93;;
53775;SDS011;44276;49.534;6.378;2023-09-12T12:37:36;9.48;;;4.95;;
53775;SDS011;44276;49.534;6.378;2023-09-12T12:40:05;12.95;;;5.32;;
53775;SDS011;44276;49.534;6.378;2023-09-12T12:42:39;8.13;;;5.18;;
53775;SDS011;44276;49.534;6.378;2023-09-12T12:45:21;11.48;;;5.25;;
53775;SDS011;44276;49.534;6.378;2023-09-12T12:47:57;10.52;;;4.88;;
53775;SDS011;44276;49.534;6.378;2023-09-12T12:50:28;10.60;;;5.63;;
53775;SDS011;44276;49.534;6.378;2023-09-12T12:52:56;8.15;;;4.95;;
53775;SDS011;44276;49.534;6.378;2023-09-12T12:55:25;9.15;;;4.45;;
53775;SDS011;44276;49.534;6.378;2023-09-12T12:57:53;6.60;;;4.95;;
53775;SDS011;44276;49.534;6.378;2023-09-12T13:00:22;9.98;;;5.15;;
53775;SDS011;44276;49.534;6.378;2023-09-12T13:02:50;8.57;;;5.30;;
53775;SDS011;44276;49.534;6.378;2023-09-12T13:05:21;7.10;;;5.10;;
53775;SDS011;44276;49.534;6.378;2023-09-12T13:07:52;8.95;;;5.28;;
53775;SDS011;44276;49.534;6.378;2023-09-12T13:10:21;7.03;;;4.55;;
53775;SDS011;44276;49.534;6.378;2023-09-12T13:12:51;9.90;;;5.32;;
53775;SDS011;44276;49.534;6.378;2023-09-12T13:15:19;11.07;;;5.25;;
53775;SDS011;44276;49.534;6.378;2023-09-12T13:17:52;8.68;;;5.15;;
53775;SDS011;44276;49.534;6.378;2023-09-12T13:20:21;7.13;;;5.15;;
53775;SDS011;44276;49.534;6.378;2023-09-12T13:22:49;6.95;;;5.10;;
53775;SDS011;44276;49.534;6.378;2023-09-12T13:25:17;6.78;;;4.18;;
53775;SDS011;44276;49.534;6.378;2023-09-12T13:27:47;8.48;;;5.55;;
53775;SDS011;44276;49.534;6.378;2023-09-12T13:30:15;6.00;;;5.40;;
53775;SDS011;44276;49.534;6.378;2023-09-12T13:32:43;10.07;;;5.63;;
53775;SDS011;44276;49.534;6.378;2023-09-12T13:35:14;8.00;;;5.03;;
53775;SDS011;44276;49.534;6.378;2023-09-12T13:37:43;8.93;;;5.82;;
53775;SDS011;44276;49.534;6.378;2023-09-12T13:40:11;7.95;;;5.25;;
53775;SDS011;44276;49.534;6.378;2023-09-12T13:42:39;7.60;;;5.30;;
53775;SDS011;44276;49.534;6.378;2023-09-12T13:45:10;9.82;;;6.13;;
53775;SDS011;44276;49.534;6.378;2023-09-12T13:47:38;9.60;;;5.05;;
53775;SDS011;44276;49.534;6.378;2023-09-12T13:50:08;10.38;;;5.40;;
53775;SDS011;44276;49.534;6.378;2023-09-12T13:52:38;6.72;;;5.30;;
53775;SDS011;44276;49.534;6.378;2023-09-12T13:55:06;7.15;;;4.90;;
53775;SDS011;44276;49.534;6.378;2023-09-12T13:57:45;11.52;;;6.40;;
53775;SDS011;44276;49.534;6.378;2023-09-12T14:00:19;10.02;;;5.82;;
53775;SDS011;44276;49.534;6.378;2023-09-12T14:02:59;5.80;;;4.63;;
53775;SDS011;44276;49.534;6.378;2023-09-12T14:05:29;11.27;;;5.50;;
53775;SDS011;44276;49.534;6.378;2023-09-12T14:08:00;6.63;;;5.05;;
53775;SDS011;44276;49.534;6.378;2023-09-12T14:10:28;9.32;;;5.82;;
53775;SDS011;44276;49.534;6.378;2023-09-12T14:13:02;10.15;;;5.78;;
53775;SDS011;44276;49.534;6.378;2023-09-12T14:15:34;5.85;;;4.90;;
53775;SDS011;44276;49.534;6.378;2023-09-12T14:18:03;6.65;;;4.85;;
53775;SDS011;44276;49.534;6.378;2023-09-12T14:20:32;9.05;;;5.07;;
53775;SDS011;44276;49.534;6.378;2023-09-12T14:23:03;7.75;;;5.18;;
53775;SDS011;44276;49.534;6.378;2023-09-12T14:25:31;9.23;;;4.90;;
53775;SDS011;44276;49.534;6.378;2023-09-12T14:28:01;11.65;;;6.38;;
53775;SDS011;44276;49.534;6.378;2023-09-12T14:30:31;7.35;;;5.32;;
53775;SDS011;44276;49.534;6.378;2023-09-12T14:33:02;8.02;;;4.78;;
53775;SDS011;44276;49.534;6.378;2023-09-12T14:35:30;9.60;;;5.88;;
53775;SDS011;44276;49.534;6.378;2023-09-12T14:37:58;9.68;;;4.25;;
53775;SDS011;44276;49.534;6.378;2023-09-12T14:40:28;8.50;;;4.55;;
53775;SDS011;44276;49.534;6.378;2023-09-12T14:42:56;5.63;;;4.68;;
53775;SDS011;44276;49.534;6.378;2023-09-12T14:45:24;12.02;;;5.47;;
53775;SDS011;44276;49.534;6.378;2023-09-12T14:47:54;7.55;;;4.93;;
53775;SDS011;44276;49.534;6.378;2023-09-12T14:50:24;12.07;;;5.50;;
53775;SDS011;44276;49.534;6.378;2023-09-12T14:53:07;11.43;;;4.88;;
53775;SDS011;44276;49.534;6.378;2023-09-12T14:55:37;7.38;;;4.38;;
53775;SDS011;44276;49.534;6.378;2023-09-12T14:58:05;10.43;;;5.13;;
53775;SDS011;44276;49.534;6.378;2023-09-12T15:00:33;4.70;;;4.13;;
53775;SDS011;44276;49.534;6.378;2023-09-12T15:03:02;6.55;;;4.78;;
53775;SDS011;44276;49.534;6.378;2023-09-12T15:05:31;6.65;;;4.03;;
53775;SDS011;44276;49.534;6.378;2023-09-12T15:07:59;7.30;;;4.60;;
53775;SDS011;44276;49.534;6.378;2023-09-12T15:10:29;7.15;;;3.72;;
53775;SDS011;44276;49.534;6.378;2023-09-12T15:12:58;6.70;;;4.22;;
53775;SDS011;44276;49.534;6.378;2023-09-12T15:15:27;6.03;;;4.75;;